createdAt,value
2022-10-22T00:09:08.356Z,2.33
2022-10-22T00:19:11.128Z,3.40
2022-10-22T00:29:12.680Z,3.55
2022-10-22T00:39:16.123Z,3.20
2022-10-22T00:49:17.394Z,2.17
2022-10-22T00:59:18.719Z,3.67
2022-10-22T01:09:19.998Z,2.33
2022-10-22T01:19:21.314Z,2.25
2022-10-22T01:29:22.669Z,3.80
2022-10-22T01:39:24.149Z,3.72
2022-10-22T01:49:25.471Z,2.50
2022-10-22T01:59:26.855Z,3.05
2022-10-22T02:09:28.144Z,2.28
2022-10-22T02:19:29.512Z,2.83
2022-10-22T02:29:30.850Z,2.92
2022-10-22T02:39:32.176Z,3.22
2022-10-22T02:49:33.476Z,5.72
2022-10-22T02:59:34.818Z,4.43
2022-10-22T03:09:36.241Z,3.22
2022-10-22T03:19:37.643Z,3.35
2022-10-22T03:29:39.386Z,2.05
2022-10-22T03:39:40.818Z,4.25
2022-10-22T03:49:42.170Z,2.10
2022-10-22T03:59:43.515Z,2.22
2022-10-22T04:09:44.849Z,3.35
2022-10-22T04:19:46.211Z,3.33
2022-10-22T04:29:47.848Z,4.50
2022-10-22T04:39:49.190Z,6.05
2022-10-22T04:49:50.545Z,8.13
2022-10-22T04:59:51.889Z,5.68
2022-10-22T05:09:53.278Z,6.78
2022-10-22T05:19:54.703Z,5.15
2022-10-22T05:29:56.105Z,4.60
2022-10-22T05:40:06.610Z,4.72
2022-10-22T05:50:18.708Z,5.32
2022-10-22T06:00:20.059Z,7.93
2022-10-22T06:10:21.455Z,7.55
2022-10-22T06:20:22.799Z,6.05
2022-10-22T06:30:24.240Z,7.53
2022-10-22T06:40:25.642Z,6.93
2022-10-22T06:50:26.883Z,12.85
2022-10-22T07:00:28.333Z,6.00
2022-10-22T07:10:30.742Z,4.72
2022-10-22T07:20:32.187Z,3.17
2022-10-22T07:30:33.679Z,4.03
2022-10-22T07:40:35.072Z,9.43
2022-10-22T07:50:36.498Z,7.35
2022-10-22T08:00:37.882Z,2.88
2022-10-22T08:10:39.268Z,5.97
2022-10-22T08:20:40.673Z,3.65
2022-10-22T08:30:42.875Z,3.85
2022-10-22T08:40:44.278Z,5.82
2022-10-22T08:50:45.737Z,4.50
2022-10-22T09:00:47.153Z,1.50
2022-10-22T09:10:48.461Z,3.72
2022-10-22T09:20:49.717Z,2.20
2022-10-22T09:30:51.344Z,1.95
2022-10-22T09:40:52.762Z,1.50
2022-10-22T09:50:54.120Z,4.45
2022-10-22T10:00:55.515Z,2.95
2022-10-22T10:10:56.888Z,2.88
2022-10-22T10:20:58.237Z,5.25
2022-10-22T10:30:59.693Z,5.07
2022-10-22T10:41:01.048Z,4.35
2022-10-22T10:51:02.464Z,3.35
2022-10-22T11:01:04.011Z,4.90
2022-10-22T11:11:06.605Z,5.78
2022-10-22T11:21:08.201Z,5.80
2022-10-22T11:31:09.609Z,3.40
2022-10-22T11:41:11.053Z,4.45
2022-10-22T11:51:12.431Z,5.90
2022-10-22T12:01:13.924Z,4.93
2022-10-22T12:11:15.342Z,4.82
2022-10-22T12:21:16.599Z,5.55
2022-10-22T12:31:18.027Z,4.95
2022-10-22T12:41:19.460Z,5.05
2022-10-22T12:51:20.861Z,5.35
2022-10-22T13:01:22.168Z,5.95
2022-10-22T13:11:23.418Z,3.63
2022-10-22T13:21:24.823Z,6.07
2022-10-22T13:31:26.258Z,3.65
2022-10-22T13:41:27.702Z,5.20
2022-10-22T13:51:29.176Z,5.13
2022-10-22T14:01:30.516Z,3.55
2022-10-22T14:11:32.756Z,2.35
2022-10-22T14:21:34.112Z,4.45
2022-10-22T14:31:36.533Z,8.90
2022-10-22T14:41:37.914Z,4.53
2022-10-22T14:51:39.366Z,5.53
2022-10-22T15:01:42.974Z,5.63
2022-10-22T15:11:44.480Z,3.80
2022-10-22T15:21:45.767Z,4.60
2022-10-22T15:31:47.262Z,3.75
2022-10-22T15:41:48.576Z,4.90
2022-10-22T15:51:49.971Z,7.28
2022-10-22T16:01:51.319Z,9.50
2022-10-22T16:21:55.054Z,6.60
2022-10-22T16:31:56.394Z,41.33
2022-10-22T16:41:57.756Z,38.30
2022-10-22T16:51:59.300Z,25.55
2022-10-22T17:02:00.746Z,8.23
2022-10-22T17:12:02.151Z,11.38
2022-10-22T17:22:03.507Z,9.15
2022-10-22T17:32:04.922Z,6.10
2022-10-22T17:42:06.470Z,8.35
2022-10-22T17:52:07.987Z,8.35
2022-10-22T18:02:09.335Z,10.45
2022-10-22T18:12:13.049Z,9.73
2022-10-22T18:22:14.503Z,12.77
2022-10-22T18:32:15.952Z,8.32
2022-10-22T18:42:17.427Z,9.82
2022-10-22T18:52:18.846Z,11.15
2022-10-22T19:02:20.218Z,11.82
2022-10-22T19:12:21.772Z,10.68
2022-10-22T19:22:23.126Z,16.65
2022-10-22T19:32:27.457Z,14.60
2022-10-22T19:42:31.539Z,10.88
2022-10-22T19:52:33.085Z,11.52
2022-10-22T20:02:34.363Z,8.63
2022-10-22T20:12:35.636Z,11.45
2022-10-22T20:22:37.518Z,6.45
2022-10-22T20:32:38.974Z,16.23
2022-10-22T20:42:41.039Z,13.15
2022-10-22T20:52:42.573Z,9.45
2022-10-22T21:02:43.911Z,8.55
2022-10-22T21:12:45.591Z,8.25
2022-10-22T21:22:47.210Z,8.60
2022-10-22T21:32:49.960Z,10.68
2022-10-22T21:42:51.325Z,13.05
2022-10-22T21:52:52.693Z,11.07
2022-10-22T22:02:54.020Z,11.30
2022-10-22T22:12:55.584Z,9.88
2022-10-22T22:22:57.019Z,12.15
2022-10-22T22:32:58.362Z,12.80
2022-10-22T22:42:59.723Z,11.80
2022-10-22T22:53:01.031Z,12.35
2022-10-22T23:03:02.356Z,10.27
2022-10-22T23:13:03.675Z,11.40
2022-10-22T23:23:06.287Z,13.75
2022-10-22T23:33:07.664Z,12.43
2022-10-22T23:43:09.024Z,9.43
2022-10-22T23:53:10.413Z,12.02
